createdAt,value
2019-05-21T00:02:17.243Z,85.28
2019-05-21T00:04:49.012Z,84.52
2019-05-21T00:07:20.869Z,84.11
2019-05-21T00:09:53.008Z,84.05
2019-05-21T00:12:25.033Z,84.44
2019-05-21T00:14:56.824Z,84.13
2019-05-21T00:17:30.241Z,84.64
2019-05-21T00:20:02.038Z,85.85
2019-05-21T00:22:33.912Z,85.79
2019-05-21T00:25:06.553Z,85.28
2019-05-21T00:27:38.531Z,84.68
2019-05-21T00:31:04.262Z,85.56
2019-05-21T00:34:43.059Z,85.30
2019-05-21T00:37:57.276Z,86.06
2019-05-21T00:41:23.211Z,87.12
2019-05-21T00:43:59.553Z,87.11
2019-05-21T00:46:31.532Z,87.64
2019-05-21T00:49:03.317Z,87.52
2019-05-21T00:51:35.141Z,87.65
2019-05-21T00:54:06.853Z,87.71
2019-05-21T00:56:40.463Z,87.70
2019-05-21T00:59:12.450Z,87.72
2019-05-21T01:01:44.151Z,87.50
2019-05-21T01:04:16.018Z,87.50
2019-05-21T01:06:47.735Z,87.26
2019-05-21T01:09:19.528Z,87.68
2019-05-21T01:11:51.519Z,87.52
2019-05-21T01:14:23.210Z,87.37
2019-05-21T01:16:57.045Z,87.16
2019-05-21T01:19:28.838Z,87.30
2019-05-21T01:22:00.546Z,86.98
2019-05-21T01:24:32.219Z,87.02
2019-05-21T01:27:04.099Z,87.31
2019-05-21T01:29:36.178Z,87.63
2019-05-21T01:32:09.103Z,87.40
2019-05-21T01:34:41.755Z,87.18
2019-05-21T01:37:13.506Z,86.53
2019-05-21T01:39:45.232Z,85.86
2019-05-21T01:42:17.058Z,87.23
2019-05-21T01:44:48.992Z,87.52
2019-05-21T01:47:20.688Z,86.91
2019-05-21T01:49:53.797Z,86.83
2019-05-21T01:52:25.664Z,86.92
2019-05-21T01:54:57.634Z,87.55
2019-05-21T01:57:29.310Z,87.36
2019-05-21T02:00:01.003Z,87.11
2019-05-21T02:02:32.709Z,86.77
2019-05-21T02:05:06.834Z,86.97
2019-05-21T02:07:39.103Z,86.59
2019-05-21T02:10:11.181Z,87.00
2019-05-21T02:12:42.939Z,86.97
2019-05-21T02:15:15.143Z,86.79
2019-05-21T02:17:46.812Z,86.98
2019-05-21T02:20:18.859Z,86.61
2019-05-21T02:22:50.843Z,87.13
2019-05-21T02:25:23.678Z,87.14
2019-05-21T02:27:55.484Z,87.38
2019-05-21T02:30:27.326Z,86.64
2019-05-21T02:32:59.039Z,86.98
2019-05-21T02:35:30.974Z,87.04
2019-05-21T02:38:02.860Z,86.96
2019-05-21T02:40:35.035Z,87.26
2019-05-21T02:43:07.133Z,87.50
2019-05-21T02:45:39.433Z,86.73
2019-05-21T02:48:11.356Z,86.87
2019-05-21T02:50:43.228Z,87.05
2019-05-21T02:53:15.110Z,87.42
2019-05-21T02:55:46.835Z,87.38
2019-05-21T02:58:18.537Z,87.31
2019-05-21T03:01:07.972Z,87.70
2019-05-21T03:03:39.732Z,87.49
2019-05-21T03:06:14.503Z,87.88
2019-05-21T03:08:45.850Z,87.87
2019-05-21T03:11:17.822Z,88.24
2019-05-21T03:13:49.878Z,88.01
2019-05-21T03:16:23.010Z,87.88
2019-05-21T03:18:54.930Z,87.99
2019-05-21T03:21:27.145Z,87.49
2019-05-21T03:23:59.014Z,88.01
2019-05-21T03:26:30.961Z,88.33
2019-05-21T03:29:03.750Z,87.93
2019-05-21T03:31:35.994Z,88.38
2019-05-21T03:34:08.250Z,87.80
2019-05-21T03:36:40.307Z,87.89
2019-05-21T03:39:12.232Z,87.76
2019-05-21T03:41:43.930Z,87.72
2019-05-21T03:44:15.746Z,87.85
2019-05-21T03:46:47.541Z,87.76
2019-05-21T03:49:19.334Z,87.12
2019-05-21T03:51:51.217Z,87.26
2019-05-21T03:54:23.289Z,87.64
2019-05-21T03:56:55.240Z,87.10
2019-05-21T03:59:27.187Z,87.13
2019-05-21T04:01:59.074Z,87.33
2019-05-21T04:04:31.181Z,87.92
2019-05-21T04:07:02.940Z,87.27
2019-05-21T04:09:35.043Z,86.92
2019-05-21T04:12:06.827Z,87.11
2019-05-21T04:14:45.797Z,87.15
2019-05-21T04:17:36.615Z,87.35
2019-05-21T04:20:08.149Z,87.17
2019-05-21T04:22:52.970Z,86.92
2019-05-21T04:25:26.195Z,86.88
2019-05-21T04:27:58.029Z,86.74
2019-05-21T04:30:30.030Z,86.84
2019-05-21T04:33:01.999Z,87.09
2019-05-21T04:35:33.914Z,87.28
2019-05-21T04:38:06.773Z,87.43
2019-05-21T04:40:38.578Z,87.02
2019-05-21T04:43:10.447Z,87.22
2019-05-21T04:45:42.249Z,86.93
2019-05-21T04:48:14.270Z,86.84
2019-05-21T04:50:45.932Z,86.75
2019-05-21T04:53:17.604Z,87.12
2019-05-21T04:55:49.401Z,87.83
2019-05-21T04:58:21.050Z,88.20
2019-05-21T05:00:52.973Z,88.74
2019-05-21T05:03:24.636Z,88.91
2019-05-21T05:05:56.442Z,88.85
2019-05-21T05:08:28.101Z,88.22
2019-05-21T05:10:59.785Z,88.12
2019-05-21T05:13:32.976Z,87.38
2019-05-21T05:16:04.727Z,86.87
2019-05-21T05:18:37.544Z,86.01
2019-05-21T05:21:09.453Z,86.02
2019-05-21T05:23:41.458Z,86.02
2019-05-21T05:26:13.308Z,85.84
2019-05-21T05:28:44.941Z,86.62
2019-05-21T05:31:16.845Z,86.68
2019-05-21T05:33:48.736Z,86.45
2019-05-21T05:36:20.402Z,85.89
2019-05-21T05:38:52.544Z,86.31
2019-05-21T05:41:24.240Z,85.71
2019-05-21T05:43:55.933Z,84.98
2019-05-21T05:46:27.833Z,84.85
2019-05-21T05:49:05.846Z,84.09
2019-05-21T05:51:37.554Z,83.55
2019-05-21T05:54:09.332Z,84.19
2019-05-21T05:56:41.196Z,84.48
2019-05-21T05:59:14.467Z,84.18
2019-05-21T06:01:46.485Z,84.85
2019-05-21T06:04:18.210Z,84.41
2019-05-21T06:06:50.013Z,85.18
2019-05-21T06:09:22.002Z,85.07
2019-05-21T06:11:54.780Z,85.07
2019-05-21T06:14:26.477Z,84.56
2019-05-21T06:16:58.165Z,84.91
2019-05-21T06:19:29.890Z,84.52
2019-05-21T06:22:01.698Z,84.43
2019-05-21T06:24:33.898Z,84.10
2019-05-21T06:27:05.901Z,83.67
2019-05-21T06:29:39.554Z,83.59
2019-05-21T06:32:10.766Z,83.26
2019-05-21T06:34:42.481Z,83.59
2019-05-21T06:37:13.979Z,83.88
2019-05-21T06:39:45.623Z,84.19
2019-05-21T06:42:17.128Z,83.95
2019-05-21T06:44:48.639Z,83.88
2019-05-21T06:47:20.205Z,83.89
2019-05-21T06:49:51.684Z,84.38
2019-05-21T06:52:23.316Z,84.80
2019-05-21T06:54:54.840Z,83.80
2019-05-21T06:57:26.381Z,84.35
2019-05-21T06:59:58.132Z,83.89
2019-05-21T07:02:29.641Z,84.45
2019-05-21T07:05:01.193Z,84.77
2019-05-21T07:07:34.555Z,84.23
2019-05-21T07:10:07.220Z,84.00
2019-05-21T07:12:38.761Z,84.12
2019-05-21T07:15:10.689Z,83.13
2019-05-21T07:17:43.232Z,83.39
2019-05-21T07:20:15.517Z,83.04
2019-05-21T07:22:47.688Z,83.34
2019-05-21T07:25:19.550Z,83.22
2019-05-21T07:27:51.064Z,83.50
2019-05-21T07:30:22.741Z,84.10
2019-05-21T07:32:54.615Z,83.76
2019-05-21T07:35:26.460Z,83.65
2019-05-21T07:37:58.332Z,84.00
2019-05-21T07:40:29.840Z,84.06
2019-05-21T07:43:01.593Z,83.95
2019-05-21T07:45:33.044Z,83.36
2019-05-21T07:48:04.940Z,83.79
2019-05-21T07:50:36.417Z,83.67
2019-05-21T07:53:09.053Z,83.74
2019-05-21T07:55:40.548Z,82.82
2019-05-21T07:58:12.278Z,82.14
2019-05-21T08:00:43.774Z,82.15
2019-05-21T08:03:15.303Z,81.88
2019-05-21T08:05:46.979Z,82.11
2019-05-21T08:08:18.631Z,82.08
2019-05-21T08:10:52.169Z,82.29
2019-05-21T08:13:23.716Z,82.00
2019-05-21T08:15:55.482Z,81.87
2019-05-21T08:18:28.835Z,81.50
2019-05-21T08:21:00.377Z,81.83
2019-05-21T08:23:32.225Z,81.44
2019-05-21T08:26:03.791Z,81.02
2019-05-21T08:28:35.398Z,80.91
2019-05-21T08:31:07.447Z,80.40
2019-05-21T08:33:38.945Z,80.21
2019-05-21T08:36:10.772Z,80.38
2019-05-21T08:38:43.618Z,80.14
2019-05-21T08:41:15.129Z,80.21
2019-05-21T08:43:46.623Z,79.85
2019-05-21T08:46:18.082Z,79.67
2019-05-21T08:48:50.501Z,79.83
2019-05-21T08:51:21.988Z,79.51
2019-05-21T08:53:54.749Z,79.95
2019-05-21T08:56:26.418Z,79.21
2019-05-21T08:58:58.168Z,79.37
2019-05-21T09:01:29.928Z,78.74
2019-05-21T09:04:01.581Z,78.39
2019-05-21T09:06:33.115Z,78.27
2019-05-21T09:09:05.968Z,77.94
2019-05-21T09:11:37.486Z,77.50
2019-05-21T09:14:09.059Z,77.51
2019-05-21T09:16:40.760Z,77.49
2019-05-21T09:19:12.456Z,77.87
2019-05-21T09:21:44.074Z,76.97
2019-05-21T09:24:15.758Z,76.88
2019-05-21T09:26:47.252Z,76.75
2019-05-21T09:29:19.242Z,76.94
2019-05-21T09:31:50.752Z,76.36
2019-05-21T09:34:22.165Z,76.70
2019-05-21T09:36:53.865Z,77.08
2019-05-21T09:39:25.588Z,76.27
2019-05-21T09:41:57.149Z,75.66
2019-05-21T09:44:28.964Z,76.09
2019-05-21T09:47:01.196Z,75.24
2019-05-21T09:49:32.638Z,74.38
2019-05-21T09:52:04.323Z,74.47
2019-05-21T09:54:35.771Z,74.23
2019-05-21T09:57:09.462Z,74.16
2019-05-21T09:59:48.888Z,74.55
2019-05-21T10:02:23.567Z,73.99
2019-05-21T10:04:55.033Z,74.22
2019-05-21T10:07:39.123Z,73.46
2019-05-21T10:10:01.649Z,74.36
2019-05-21T10:12:33.326Z,74.62
2019-05-21T10:15:07.144Z,73.65
2019-05-21T10:17:38.642Z,73.53
2019-05-21T10:20:10.699Z,73.79
2019-05-21T10:22:44.084Z,74.78
2019-05-21T10:25:16.099Z,75.71
2019-05-21T10:27:47.759Z,74.79
2019-05-21T10:30:19.765Z,75.16
2019-05-21T10:32:54.393Z,75.05
2019-05-21T10:35:25.908Z,74.94
2019-05-21T10:37:57.327Z,74.40
2019-05-21T10:40:28.876Z,74.36
2019-05-21T10:43:00.434Z,73.71
2019-05-21T10:45:31.967Z,73.75
2019-05-21T10:48:03.786Z,73.11
2019-05-21T10:50:35.520Z,73.51
2019-05-21T10:53:08.933Z,74.33
2019-05-21T10:55:40.828Z,73.70
2019-05-21T10:58:12.376Z,73.94
2019-05-21T11:00:45.810Z,73.47
2019-05-21T11:03:21.418Z,73.33
2019-05-21T11:06:08.975Z,72.54
2019-05-21T11:08:28.636Z,71.71
2019-05-21T11:11:00.178Z,71.67
2019-05-21T11:13:31.727Z,73.43
2019-05-21T11:16:03.165Z,73.59
2019-05-21T11:18:35.097Z,72.92
2019-05-21T11:21:06.931Z,73.25
2019-05-21T11:23:38.489Z,72.77
2019-05-21T11:26:10.244Z,72.62
2019-05-21T11:28:41.916Z,71.57
2019-05-21T11:31:13.426Z,71.84
2019-05-21T11:33:45.087Z,71.83
2019-05-21T11:36:16.602Z,72.05
2019-05-21T11:38:49.313Z,70.42
2019-05-21T11:41:20.853Z,69.93
2019-05-21T11:43:54.039Z,70.58
2019-05-21T11:46:25.755Z,69.82
2019-05-21T11:48:57.154Z,70.63
2019-05-21T11:51:28.986Z,69.79
2019-05-21T11:54:00.590Z,71.12
2019-05-21T11:56:36.210Z,71.84
2019-05-21T11:59:09.653Z,71.91
2019-05-21T12:01:41.545Z,71.75
2019-05-21T12:04:13.038Z,71.81
2019-05-21T12:06:44.796Z,71.85
2019-05-21T12:09:16.258Z,71.72
2019-05-21T12:11:47.955Z,71.99
2019-05-21T12:14:21.910Z,72.97
2019-05-21T12:16:53.650Z,73.28
2019-05-21T12:19:25.127Z,72.35
2019-05-21T12:21:56.704Z,72.13
2019-05-21T12:24:29.895Z,71.99
2019-05-21T12:27:01.418Z,72.02
2019-05-21T12:29:34.370Z,71.67
2019-05-21T12:32:06.159Z,71.87
2019-05-21T12:34:39.052Z,72.55
2019-05-21T12:37:10.786Z,72.73
2019-05-21T12:39:42.814Z,72.27
2019-05-21T12:42:14.386Z,72.99
2019-05-21T12:44:46.088Z,73.57
2019-05-21T12:47:17.624Z,73.35
2019-05-21T12:49:49.277Z,73.78
2019-05-21T12:52:20.879Z,74.28
2019-05-21T12:54:52.748Z,73.47
2019-05-21T12:57:24.278Z,73.01
2019-05-21T12:59:55.796Z,73.26
2019-05-21T13:02:27.509Z,72.25
2019-05-21T13:04:59.046Z,73.08
2019-05-21T13:07:30.701Z,74.71
2019-05-21T13:10:02.196Z,73.67
2019-05-21T13:12:33.958Z,73.46
2019-05-21T13:15:06.225Z,72.68
2019-05-21T13:17:37.727Z,74.03
2019-05-21T13:20:10.947Z,75.04
2019-05-21T13:22:42.740Z,75.19
2019-05-21T13:25:14.500Z,75.43
2019-05-21T13:27:46.190Z,75.10
2019-05-21T13:30:18.729Z,74.50
2019-05-21T13:32:50.283Z,75.07
2019-05-21T13:35:21.762Z,74.76
2019-05-21T13:37:53.368Z,75.14
2019-05-21T13:40:25.613Z,74.67
2019-05-21T13:42:57.207Z,74.37
2019-05-21T13:45:28.812Z,74.41
2019-05-21T13:48:00.414Z,74.22
2019-05-21T13:50:31.953Z,75.22
2019-05-21T13:53:03.778Z,75.50
2019-05-21T13:55:36.807Z,75.30
2019-05-21T13:58:08.689Z,75.11
2019-05-21T14:00:53.095Z,75.34
2019-05-21T14:03:24.653Z,75.40
2019-05-21T14:05:56.592Z,76.36
2019-05-21T14:08:28.255Z,75.58
2019-05-21T14:11:00.434Z,75.28
2019-05-21T14:13:32.242Z,75.77
2019-05-21T14:16:05.129Z,75.03
2019-05-21T14:18:36.917Z,75.51
2019-05-21T14:21:08.639Z,76.30
2019-05-21T14:23:40.306Z,76.00
2019-05-21T14:26:14.791Z,75.41
2019-05-21T14:28:46.487Z,74.67
2019-05-21T14:31:18.087Z,74.45
2019-05-21T14:33:50.568Z,74.36
2019-05-21T14:36:22.167Z,74.67
2019-05-21T14:38:55.674Z,74.33
2019-05-21T14:41:27.223Z,73.90
2019-05-21T14:43:58.932Z,74.18
2019-05-21T14:46:30.822Z,74.94
2019-05-21T14:49:02.392Z,74.34
2019-05-21T14:51:34.106Z,74.93
2019-05-21T14:54:05.951Z,75.09
2019-05-21T14:56:37.725Z,74.30
2019-05-21T14:59:09.304Z,74.55
2019-05-21T15:01:41.294Z,74.45
2019-05-21T15:04:13.304Z,73.38
2019-05-21T15:06:45.196Z,73.38
2019-05-21T15:09:17.168Z,74.21
2019-05-21T15:11:48.793Z,74.49
2019-05-21T15:14:21.181Z,75.18
2019-05-21T15:16:52.982Z,75.41
2019-05-21T15:19:28.115Z,74.81
2019-05-21T15:21:59.848Z,74.17
2019-05-21T15:24:33.618Z,75.10
2019-05-21T15:27:05.700Z,74.94
2019-05-21T15:29:37.546Z,74.74
2019-05-21T15:32:09.326Z,75.39
2019-05-21T15:34:40.861Z,75.11
2019-05-21T15:37:12.524Z,74.47
2019-05-21T15:39:44.506Z,74.37
2019-05-21T15:42:17.264Z,75.16
2019-05-21T15:44:48.908Z,75.45
2019-05-21T15:47:20.694Z,75.16
2019-05-21T15:49:52.297Z,75.33
2019-05-21T15:52:24.115Z,75.50
2019-05-21T15:54:55.778Z,74.74
2019-05-21T15:57:27.344Z,74.80
2019-05-21T15:59:59.599Z,75.14
2019-05-21T16:02:31.146Z,75.89
2019-05-21T16:05:02.767Z,75.65
2019-05-21T16:07:34.484Z,75.94
2019-05-21T16:10:07.039Z,76.39
2019-05-21T16:12:38.608Z,75.87
2019-05-21T16:15:10.836Z,75.13
2019-05-21T16:17:43.557Z,74.50
2019-05-21T16:20:15.633Z,73.53
2019-05-21T16:22:47.247Z,72.97
2019-05-21T16:25:19.298Z,73.24
2019-05-21T16:27:51.098Z,73.71
2019-05-21T16:30:23.057Z,74.41
2019-05-21T16:32:54.611Z,74.58
2019-05-21T16:35:28.573Z,75.23
2019-05-21T16:38:00.540Z,74.44
2019-05-21T16:40:32.200Z,73.96
2019-05-21T16:43:03.925Z,74.16
2019-05-21T16:45:37.081Z,74.25
2019-05-21T16:48:09.092Z,75.04
2019-05-21T16:50:42.689Z,73.80
2019-05-21T16:53:14.731Z,74.21
2019-05-21T16:55:47.068Z,73.65
2019-05-21T16:58:18.889Z,74.73
2019-05-21T17:00:51.298Z,74.47
2019-05-21T17:03:23.217Z,74.20
2019-05-21T17:05:55.076Z,74.69
2019-05-21T17:08:26.592Z,74.60
2019-05-21T17:10:58.594Z,74.48
2019-05-21T17:13:30.715Z,75.31
2019-05-21T17:16:02.291Z,75.39
2019-05-21T17:18:34.046Z,75.62
2019-05-21T17:21:05.627Z,75.66
2019-05-21T17:23:38.088Z,76.80
2019-05-21T17:26:09.713Z,76.90
2019-05-21T17:28:41.694Z,76.53
2019-05-21T17:31:14.142Z,77.38
2019-05-21T17:33:46.242Z,77.21
2019-05-21T17:36:17.872Z,77.01
2019-05-21T17:38:49.515Z,76.95
2019-05-21T17:41:21.201Z,77.12
2019-05-21T17:43:52.915Z,77.82
2019-05-21T17:46:24.730Z,77.45
2019-05-21T17:48:56.485Z,77.82
2019-05-21T17:51:29.897Z,77.82
2019-05-21T17:54:03.204Z,77.70
2019-05-21T17:56:35.035Z,78.06
2019-05-21T17:59:06.614Z,78.07
2019-05-21T18:01:38.412Z,78.28
2019-05-21T18:04:12.234Z,78.43
2019-05-21T18:06:44.135Z,78.25
2019-05-21T18:09:16.833Z,78.34
2019-05-21T18:11:49.145Z,78.45
2019-05-21T18:14:21.861Z,78.37
2019-05-21T18:16:54.955Z,78.17
2019-05-21T18:19:27.966Z,77.34
2019-05-21T18:22:01.595Z,77.12
2019-05-21T18:24:34.334Z,77.51
2019-05-21T18:27:06.113Z,77.59
2019-05-21T18:29:37.783Z,77.26
2019-05-21T18:32:09.545Z,76.91
2019-05-21T18:34:41.645Z,76.85
2019-05-21T18:37:13.784Z,75.96
2019-05-21T18:39:45.803Z,75.81
2019-05-21T18:42:22.405Z,75.54
2019-05-21T18:44:50.956Z,74.76
2019-05-21T18:47:22.522Z,75.78
2019-05-21T18:49:55.491Z,75.30
2019-05-21T18:52:27.428Z,75.06
2019-05-21T18:55:00.066Z,75.49
2019-05-21T18:57:31.767Z,75.22
2019-05-21T19:00:03.421Z,75.81
2019-05-21T19:02:36.750Z,75.07
2019-05-21T19:05:09.252Z,75.17
2019-05-21T19:07:41.795Z,75.49
2019-05-21T19:10:15.705Z,74.65
2019-05-21T19:12:47.339Z,75.65
2019-05-21T19:15:19.383Z,75.41
2019-05-21T19:17:51.219Z,74.88
2019-05-21T19:20:23.542Z,74.61
2019-05-21T19:22:55.566Z,75.32
2019-05-21T19:25:28.058Z,74.32
2019-05-21T19:27:59.747Z,74.95
2019-05-21T19:30:32.232Z,75.72
2019-05-21T19:33:04.407Z,76.08
2019-05-21T19:35:36.049Z,76.06
2019-05-21T19:38:08.194Z,76.04
2019-05-21T19:40:41.843Z,75.70
2019-05-21T19:43:14.972Z,75.98
2019-05-21T19:45:46.665Z,76.91
2019-05-21T19:48:18.660Z,75.83
2019-05-21T19:50:52.397Z,75.55
2019-05-21T19:53:24.228Z,75.83
2019-05-21T19:55:56.059Z,75.37
2019-05-21T19:58:27.742Z,75.37
2019-05-21T20:00:59.905Z,75.81
2019-05-21T20:03:32.767Z,75.86
2019-05-21T20:06:04.628Z,76.09
2019-05-21T20:08:36.608Z,75.79
2019-05-21T20:11:11.480Z,75.85
2019-05-21T20:13:43.134Z,74.92
2019-05-21T20:16:16.983Z,74.49
2019-05-21T20:18:48.881Z,74.27
2019-05-21T20:21:22.678Z,74.29
2019-05-21T20:23:54.740Z,73.97
2019-05-21T20:26:28.346Z,73.69
2019-05-21T20:29:01.768Z,74.21
2019-05-21T20:31:33.387Z,73.63
2019-05-21T20:34:06.746Z,73.18
2019-05-21T20:36:40.898Z,73.27
2019-05-21T20:39:15.090Z,73.76
2019-05-21T20:41:47.490Z,73.87
2019-05-21T20:44:19.976Z,74.40
2019-05-21T20:46:55.349Z,74.35
2019-05-21T20:49:26.972Z,74.09
2019-05-21T20:51:58.919Z,74.90
2019-05-21T20:54:31.954Z,74.99
2019-05-21T20:57:05.820Z,75.18
2019-05-21T20:59:38.298Z,75.06
2019-05-21T21:02:12.510Z,74.98
2019-05-21T21:04:44.142Z,75.04
2019-05-21T21:07:16.442Z,74.81
2019-05-21T21:09:48.142Z,74.88
2019-05-21T21:12:20.765Z,74.57
2019-05-21T21:14:53.550Z,75.04
2019-05-21T21:17:25.621Z,74.74
2019-05-21T21:19:57.349Z,75.30
2019-05-21T21:22:28.933Z,74.85
2019-05-21T21:25:01.047Z,75.13
2019-05-21T21:27:35.526Z,75.14
2019-05-21T21:30:09.003Z,75.17
2019-05-21T21:32:41.183Z,74.31
2019-05-21T21:35:14.041Z,74.71
2019-05-21T21:37:47.284Z,75.05
2019-05-21T21:40:21.092Z,74.56
2019-05-21T21:42:53.260Z,74.43
2019-05-21T21:45:25.132Z,74.63
2019-05-21T21:47:56.671Z,74.49
2019-05-21T21:50:29.379Z,74.21
2019-05-21T21:53:00.976Z,74.12
2019-05-21T21:55:32.945Z,74.11
2019-05-21T21:58:04.700Z,73.67
2019-05-21T22:01:36.988Z,74.35
2019-05-21T22:04:12.276Z,74.02
2019-05-21T22:06:45.775Z,72.87
2019-05-21T22:09:43.280Z,72.43
2019-05-21T22:12:18.677Z,72.51
2019-05-21T22:15:02.212Z,72.41
2019-05-21T22:17:34.546Z,72.82
2019-05-21T22:20:08.422Z,72.91
2019-05-21T22:22:40.030Z,72.68
2019-05-21T22:25:12.274Z,73.16
2019-05-21T22:27:44.018Z,73.27
2019-05-21T22:30:17.536Z,74.02
2019-05-21T22:32:49.186Z,73.27
2019-05-21T22:35:20.821Z,73.61
2019-05-21T22:37:52.381Z,73.26
2019-05-21T22:40:25.908Z,72.91
2019-05-21T22:42:57.476Z,72.72
2019-05-21T22:45:29.312Z,72.63
2019-05-21T22:48:01.369Z,72.90
2019-05-21T22:50:33.163Z,72.63
2019-05-21T22:53:05.478Z,72.51
2019-05-21T22:55:37.067Z,72.82
2019-05-21T22:58:09.008Z,72.09
2019-05-21T23:00:41.072Z,72.57
2019-05-21T23:03:13.254Z,72.28
2019-05-21T23:05:45.057Z,72.78
2019-05-21T23:08:17.589Z,72.22
2019-05-21T23:10:49.235Z,72.01
2019-05-21T23:13:21.124Z,70.84
2019-05-21T23:15:53.648Z,70.38
2019-05-21T23:18:35.797Z,70.68
2019-05-21T23:21:19.489Z,70.71
2019-05-21T23:23:53.319Z,72.06
2019-05-21T23:26:25.659Z,72.12
2019-05-21T23:28:57.236Z,72.29
2019-05-21T23:31:30.084Z,72.52
2019-05-21T23:34:02.432Z,72.88
2019-05-21T23:36:34.434Z,72.91
2019-05-21T23:39:08.779Z,72.80
2019-05-21T23:41:41.955Z,72.54
2019-05-21T23:44:14.231Z,71.96
2019-05-21T23:46:45.975Z,72.82
2019-05-21T23:49:17.513Z,73.03
2019-05-21T23:51:49.305Z,73.48
2019-05-21T23:54:20.988Z,73.25
2019-05-21T23:56:54.143Z,71.85
2019-05-21T23:59:28.037Z,71.22
